Time;durP1;ratioP1;P1;durP2;ratioP2;P2;SDS_P1;SDS_P2;PMS_P1;PMS_P2;Temp;Humidity;BMP_temperature;BMP_pressure;BME280_temperature;BME280_humidity;BME280_pressure;Samples;Min_cycle;Max_cycle;Signal;HPM_P1;HPM_P2
2022/11/25 00:01:20;;;;;;;0.67;0.67;;;;;;;2.87;100.00;100132.16;5036943;28;20479;-57
2022/11/25 00:03:48;;;;;;;0.90;0.87;;;;;;;2.90;100.00;100131.31;5037613;28;20822;-57
2022/11/25 00:06:21;;;;;;;0.40;0.30;;;;;;;2.76;100.00;100131.31;5038098;28;20958;-57
2022/11/25 00:08:52;;;;;;;2.30;0.83;;;;;;;2.78;100.00;100133.94;5027006;28;20936;-57
2022/11/25 00:11:18;;;;;;;0.60;0.60;;;;;;;2.87;100.00;100133.91;5039297;28;20824;-57
2022/11/25 00:13:46;;;;;;;0.30;0.23;;;;;;;3.35;100.00;100132.13;5045949;28;20499;-56
2022/11/25 00:16:15;;;;;;;0.70;0.70;;;;;;;3.98;100.00;100135.44;5046760;28;20491;-56
2022/11/25 00:19:00;;;;;;;1.50;0.87;;;;;;;3.59;100.00;100139.97;5041075;28;20531;-57
2022/11/25 00:21:30;;;;;;;0.90;0.83;;;;;;;3.27;100.00;100140.00;5038603;28;20475;-57
2022/11/25 00:23:59;;;;;;;1.33;1.23;;;;;;;3.16;100.00;100131.31;5041969;28;20448;-57
2022/11/25 00:26:27;;;;;;;0.80;0.80;;;;;;;2.97;100.00;100130.44;5046695;28;20456;-56
2022/11/25 00:28:57;;;;;;;0.67;0.50;;;;;;;2.94;100.00;100133.94;5044602;28;20454;-57
2022/11/25 00:31:26;;;;;;;1.83;0.97;;;;;;;2.79;100.00;100130.44;5029050;28;20456;-57
2022/11/25 00:33:53;;;;;;;1.17;1.17;;;;;;;2.84;100.00;100126.06;5025968;28;20491;-56
2022/11/25 00:36:30;;;;;;;0.70;0.63;;;;;;;2.66;100.00;100125.19;5046250;28;20474;-56
2022/11/25 00:39:05;;;;;;;7.43;0.67;;;;;;;2.96;100.00;100129.56;5045888;28;20507;-57
2022/11/25 00:47:16;;;;;;;0.60;0.50;;;;;;;2.84;100.00;100116.44;5039030;28;20447;-56
2022/11/25 00:49:45;;;;;;;0.53;0.50;;;;;;;2.85;100.00;100120.78;5043536;28;20465;-57
2022/11/25 00:52:16;;;;;;;0.40;0.23;;;;;;;2.80;100.00;100125.19;5046253;28;20483;-56
2022/11/25 00:54:46;;;;;;;2.53;2.33;;;;;;;2.67;100.00;100123.44;5043977;28;20513;-56
2022/11/25 00:57:14;;;;;;;22.20;2.20;;;;;;;2.72;100.00;100115.53;5038370;28;20454;-56
2022/11/25 00:59:40;;;;;;;0.50;0.30;;;;;;;2.55;100.00;100126.03;5038882;28;20463;-55
2022/11/25 01:02:09;;;;;;;0.50;0.40;;;;;;;2.57;100.00;100126.91;5014221;28;20483;-55
2022/11/25 01:04:35;;;;;;;5.03;0.83;;;;;;;2.59;100.00;100125.16;5042665;28;20451;-56
2022/11/25 01:07:02;;;;;;;1.03;0.90;;;;;;;2.54;100.00;100124.28;5027204;28;20510;-55
2022/11/25 01:09:29;;;;;;;0.50;0.50;;;;;;;2.59;100.00;100119.91;5043089;28;20477;-56
2022/11/25 01:11:56;;;;;;;0.77;0.77;;;;;;;2.74;100.00;100121.66;5037576;28;20475;-55
2022/11/25 01:14:23;;;;;;;0.30;0.20;;;;;;;2.94;100.00;100120.81;5038857;28;20988;-56
2022/11/25 01:16:50;;;;;;;0.50;0.37;;;;;;;2.69;100.00;100134.78;5044390;28;20466;-56
2022/11/25 01:19:17;;;;;;;1.63;1.20;;;;;;;2.74;100.00;100133.06;5044043;28;20455;-55
2022/11/25 01:21:44;;;;;;;2.23;0.70;;;;;;;2.73;100.00;100133.03;5037167;28;20588;-55
2022/11/25 01:24:13;;;;;;;0.80;0.80;;;;;;;2.80;100.00;100133.06;5037888;28;20451;-56
2022/11/25 01:26:40;;;;;;;2.43;0.43;;;;;;;2.65;100.00;100130.44;5044009;28;20452;-56
2022/11/25 01:29:12;;;;;;;0.60;0.60;;;;;;;2.48;100.00;100134.78;5043607;28;20458;-56
2022/11/25 01:31:38;;;;;;;0.77;0.77;;;;;;;2.49;100.00;100134.78;5043502;28;20514;-56
2022/11/25 01:34:10;;;;;;;24.37;2.53;;;;;;;2.48;100.00;100125.16;5043715;28;20522;-56
2022/11/25 01:36:37;;;;;;;0.70;0.70;;;;;;;2.52;100.00;100128.66;5039741;28;20940;-55
2022/11/25 01:39:05;;;;;;;0.80;0.77;;;;;;;2.68;100.00;100133.03;5037382;28;20543;-56
2022/11/25 01:41:33;;;;;;;7.20;1.37;;;;;;;3.19;100.00;100128.66;5042384;28;20502;-56
2022/11/25 01:44:11;;;;;;;15.13;3.40;;;;;;;2.95;100.00;100126.94;5045231;28;20450;-56
2022/11/25 01:46:57;;;;;;;1.40;1.30;;;;;;;2.78;100.00;100129.56;5042064;28;20937;-56
2022/11/25 01:49:39;;;;;;;2.50;2.40;;;;;;;2.66;100.00;100133.06;5044335;28;20451;-56
2022/11/25 01:52:12;;;;;;;2.20;1.73;;;;;;;2.68;100.00;100122.56;5047450;28;20473;-56
2022/11/25 01:55:16;;;;;;;2.00;1.80;;;;;;;2.78;100.00;100119.06;5044414;28;20549;-56
2022/11/25 01:57:47;;;;;;;2.50;2.40;;;;;;;2.78;100.00;100118.19;4932943;29;20470;-56
2022/11/25 02:00:14;;;;;;;0.87;0.87;;;;;;;2.74;100.00;100119.94;5025652;28;20977;-56
2022/11/25 02:02:41;;;;;;;1.90;0.83;;;;;;;2.87;100.00;100120.78;5015062;28;20984;-56
2022/11/25 02:05:11;;;;;;;0.57;0.57;;;;;;;2.89;100.00;100113.81;5047850;28;20458;-56
2022/11/25 02:07:42;;;;;;;1.53;1.43;;;;;;;2.95;100.00;100105.94;5030259;28;20493;-57
2022/11/25 02:10:18;;;;;;;6.33;2.50;;;;;;;2.88;100.00;100115.56;5048004;28;20458;-56
2022/11/25 02:12:46;;;;;;;0.70;0.60;;;;;;;3.02;100.00;100114.69;5047206;28;20465;-55
2022/11/25 02:15:14;;;;;;;0.37;0.37;;;;;;;2.99;100.00;100115.53;5041214;28;20506;-56
2022/11/25 02:17:42;;;;;;;0.60;0.60;;;;;;;3.17;100.00;100117.28;5042147;28;20984;-56
2022/11/25 02:20:15;;;;;;;1.20;1.10;;;;;;;3.19;100.00;100119.03;5041889;28;20478;-56
2022/11/25 02:23:13;;;;;;;0.50;0.47;;;;;;;3.39;100.00;100112.84;5029406;28;20481;-56
2022/11/25 02:25:40;;;;;;;0.77;0.77;;;;;;;3.24;100.00;100113.75;5042781;28;20444;-56
2022/11/25 02:28:20;;;;;;;10.50;1.90;;;;;;;3.16;100.00;100115.53;5047483;28;21001;-55
2022/11/25 02:30:47;;;;;;;0.60;0.60;;;;;;;3.09;100.00;100105.91;5047506;28;20459;-55
2022/11/25 02:33:14;;;;;;;13.77;1.60;;;;;;;3.12;100.00;100103.28;5040449;28;20995;-53
2022/11/25 02:35:45;;;;;;;1.17;1.17;;;;;;;3.20;100.00;100110.28;5023868;28;20457;-52
2022/11/25 02:38:31;;;;;;;49.60;0.80;;;;;;;3.27;100.00;100106.75;5039741;28;20451;-54
2022/11/25 02:41:02;;;;;;;0.47;0.40;;;;;;;3.31;100.00;100097.13;5037454;28;20499;-54
2022/11/25 02:43:29;;;;;;;1.30;1.20;;;;;;;3.42;100.00;100097.94;5039556;28;20486;-55
2022/11/25 02:46:05;;;;;;;2.00;0.97;;;;;;;3.43;100.00;100096.22;5044574;28;20455;-54
2022/11/25 02:48:35;;;;;;;2.00;1.37;;;;;;;3.56;100.00;100103.16;5044449;28;20450;-54
2022/11/25 02:51:24;;;;;;;0.40;0.40;;;;;;;3.65;100.00;100108.41;5041015;28;20447;-54
2022/11/25 02:53:51;;;;;;;0.70;0.70;;;;;;;3.61;100.00;100105.78;5037634;28;20494;-53
2022/11/25 02:56:19;;;;;;;3.57;2.20;;;;;;;3.66;100.00;100097.00;5039826;28;20975;-53
2022/11/25 02:58:46;;;;;;;2.10;1.07;;;;;;;3.80;100.00;100089.94;5044053;28;20452;-53
2022/11/25 03:01:13;;;;;;;6.13;1.50;;;;;;;3.60;100.00;100091.78;5033898;28;20457;-53
2022/11/25 03:03:39;;;;;;;5.23;2.37;;;;;;;3.66;100.00;100090.88;5032080;28;20455;-53
2022/11/25 03:06:06;;;;;;;0.73;0.73;;;;;;;3.69;100.00;100094.34;5038137;28;20534;-53
2022/11/25 03:08:32;;;;;;;2.07;1.93;;;;;;;3.72;100.00;100093.50;5041704;28;20452;-53
2022/11/25 03:10:59;;;;;;;1.60;1.23;;;;;;;3.80;100.00;100097.81;5041826;28;20473;-55
2022/11/25 03:13:26;;;;;;;4.20;1.37;;;;;;;3.99;100.00;100101.25;5036937;28;20475;-53
2022/11/25 03:15:52;;;;;;;2.80;1.80;;;;;;;3.93;100.00;100103.03;5039121;28;20833;-53
2022/11/25 03:18:18;;;;;;;6.07;0.70;;;;;;;3.90;100.00;100101.28;5043606;28;20968;-52
2022/11/25 03:20:45;;;;;;;5.50;2.93;;;;;;;3.63;100.00;100094.41;5041740;28;20516;-54
2022/11/25 03:23:11;;;;;;;1.77;1.30;;;;;;;3.64;100.00;100083.00;5036566;28;20474;-52
2022/11/25 03:25:38;;;;;;;4.53;2.57;;;;;;;3.66;100.00;100078.59;5021495;28;20451;-54
2022/11/25 03:28:04;;;;;;;1.10;1.07;;;;;;;3.84;100.00;100075.03;5043459;28;20526;-52
2022/11/25 03:30:31;;;;;;;3.23;1.90;;;;;;;4.18;100.00;100085.38;5041476;28;20940;-55
2022/11/25 03:32:57;;;;;;;2.87;1.60;;;;;;;4.05;100.00;100080.19;5036058;28;20478;-55
2022/11/25 03:35:24;;;;;;;0.60;0.60;;;;;;;4.15;100.00;100083.63;5038895;28;21016;-53
2022/11/25 03:37:50;;;;;;;4.03;1.43;;;;;;;4.29;100.00;100091.44;5043551;28;20455;-55
2022/11/25 03:40:17;;;;;;;1.27;1.17;;;;;;;4.28;100.00;100093.19;5041270;28;20928;-53
2022/11/25 03:42:43;;;;;;;2.87;0.63;;;;;;;4.27;100.00;100091.47;5036561;28;20479;-54
2022/11/25 03:45:12;;;;;;;1.80;1.00;;;;;;;4.16;100.00;100085.38;5038555;28;20451;-53
2022/11/25 03:47:40;;;;;;;12.30;3.47;;;;;;;4.21;100.00;100093.22;5043629;28;20521;-53
2022/11/25 03:50:08;;;;;;;4.73;2.40;;;;;;;4.21;100.00;100090.59;5042155;28;20862;-54
2022/11/25 03:52:35;;;;;;;2.57;2.37;;;;;;;4.04;100.00;100095.97;5036246;28;20475;-53
2022/11/25 03:55:01;;;;;;;1.27;1.20;;;;;;;4.12;100.00;100094.19;5037246;28;20495;-53
2022/11/25 03:57:28;;;;;;;7.63;1.33;;;;;;;4.06;100.00;100099.44;5043225;28;20493;-53
2022/11/25 03:59:54;;;;;;;1.27;1.00;;;;;;;4.08;100.00;100092.44;5012354;28;20521;-54
2022/11/25 04:02:21;;;;;;;2.10;2.00;;;;;;;4.33;100.00;100091.41;5029359;28;20478;-53
2022/11/25 04:04:47;;;;;;;4.03;1.90;;;;;;;4.28;100.00;100087.94;5036768;28;20451;-55
2022/11/25 04:07:14;;;;;;;0.90;0.90;;;;;;;4.21;100.00;100090.59;5044427;28;20462;-53
2022/11/25 04:09:40;;;;;;;16.80;1.07;;;;;;;4.27;100.00;100091.47;5018998;28;20462;-55
2022/11/25 04:14:53;;;;;;;5.50;3.67;;;;;;;4.25;100.00;100082.69;5042129;28;20491;-53
2022/11/25 04:17:19;;;;;;;2.03;1.93;;;;;;;4.04;100.00;100072.28;5038551;28;20998;-54
2022/11/25 04:19:45;;;;;;;1.00;0.67;;;;;;;4.03;100.00;100075.81;5035746;28;20506;-53
2022/11/25 04:22:12;;;;;;;9.07;4.03;;;;;;;4.16;100.00;100074.84;5040281;28;20529;-53
2022/11/25 04:24:38;;;;;;;2.03;1.90;;;;;;;4.31;100.00;100080.03;5042748;28;20450;-55
2022/11/25 04:27:04;;;;;;;1.53;1.00;;;;;;;4.22;100.00;100087.09;5037765;28;20461;-53
2022/11/25 04:29:31;;;;;;;0.70;0.50;;;;;;;4.35;100.00;100086.13;5035666;28;20876;-53
2022/11/25 04:31:58;;;;;;;3.83;3.47;;;;;;;4.49;100.00;100096.56;5038460;28;20480;-53
2022/11/25 04:34:24;;;;;;;2.20;1.90;;;;;;;4.49;100.00;100097.44;5042492;28;20490;-53
2022/11/25 04:36:51;;;;;;;7.03;1.60;;;;;;;4.38;100.00;100099.25;5037959;28;20832;-53
2022/11/25 04:39:17;;;;;;;0.90;0.90;;;;;;;4.39;100.00;100098.41;5036149;28;20517;-53
2022/11/25 04:41:44;;;;;;;1.43;1.33;;;;;;;4.43;100.00;100086.97;5039445;28;20468;-55
2022/11/25 04:44:10;;;;;;;2.33;2.23;;;;;;;4.43;100.00;100082.56;5042468;28;20451;-53
2022/11/25 04:46:39;;;;;;;5.53;2.33;;;;;;;4.56;100.00;100080.72;5038723;28;20450;-54
2022/11/25 04:49:06;;;;;;;4.43;1.20;;;;;;;4.80;100.00;100084.00;5035576;28;20488;-54
2022/11/25 04:51:33;;;;;;;2.00;1.90;;;;;;;4.52;100.00;100081.59;5038562;28;20871;-54
2022/11/25 04:53:59;;;;;;;1.37;1.27;;;;;;;4.49;100.00;100075.50;5042022;28;20454;-53
2022/11/25 04:56:26;;;;;;;1.00;1.00;;;;;;;4.52;100.00;100078.97;5039767;28;20470;-53
2022/11/25 05:01:37;;;;;;;1.80;1.70;;;;;;;4.68;100.00;100082.38;5029493;28;20851;-55
2022/11/25 05:04:04;;;;;;;1.00;0.87;;;;;;;4.65;100.00;100091.16;5036494;28;20457;-53
2022/11/25 05:06:30;;;;;;;5.30;1.60;;;;;;;4.73;100.00;100099.00;5029670;28;20514;-53
2022/11/25 05:08:56;;;;;;;2.03;1.93;;;;;;;4.63;100.00;100098.19;5036444;28;20508;-55
2022/11/25 05:11:23;;;;;;;0.60;0.60;;;;;;;4.60;100.00;100100.84;5035020;28;20521;-53
2022/11/25 05:13:49;;;;;;;13.10;1.13;;;;;;;4.68;100.00;100111.34;5041032;28;20968;-53
2022/11/25 05:16:15;;;;;;;12.40;1.87;;;;;;;4.78;100.00;100113.00;5041650;28;20910;-53
2022/11/25 05:18:42;;;;;;;1.43;1.37;;;;;;;4.76;100.00;100107.75;5036727;28;20446;-53
2022/11/25 05:21:08;;;;;;;2.10;2.00;;;;;;;4.79;100.00;100112.09;5034673;28;20451;-52
2022/11/25 05:23:35;;;;;;;1.43;1.33;;;;;;;4.78;100.00;100117.38;5040828;28;20458;-53
2022/11/25 05:26:03;;;;;;;4.00;2.50;;;;;;;4.84;100.00;100117.34;5045092;28;20450;-53
2022/11/25 05:28:30;;;;;;;2.60;1.87;;;;;;;4.76;100.00;100112.13;5040909;28;20478;-53
2022/11/25 05:30:57;;;;;;;1.70;1.30;;;;;;;4.78;100.00;100114.75;5036184;28;20514;-53
2022/11/25 05:33:23;;;;;;;2.50;1.07;;;;;;;5.24;100.00;100109.97;5021431;28;20916;-53
2022/11/25 05:35:57;;;;;;;14.90;2.10;;;;;;;5.12;100.00;100103.06;5045482;28;20494;-54
2022/11/25 05:38:24;;;;;;;1.73;1.63;;;;;;;4.97;100.00;100106.72;5042345;28;20454;-53
2022/11/25 05:40:51;;;;;;;31.07;1.27;;;;;;;4.98;100.00;100113.72;5038836;28;20454;-53
2022/11/25 05:43:17;;;;;;;0.97;0.87;;;;;;;4.90;100.00;100106.75;5042834;28;20475;-53
2022/11/25 05:45:44;;;;;;;2.17;1.30;;;;;;;4.77;100.00;100111.25;5045490;28;21039;-55
2022/11/25 05:48:10;;;;;;;1.10;0.80;;;;;;;4.59;100.00;100109.66;5041347;28;20477;-53
2022/11/25 05:50:37;;;;;;;3.37;2.97;;;;;;;4.74;100.00;100108.66;5038897;28;20508;-57
2022/11/25 05:53:04;;;;;;;4.30;1.63;;;;;;;4.78;100.00;100117.38;5042215;28;20533;-53
2022/11/25 05:55:31;;;;;;;1.60;1.13;;;;;;;4.96;100.00;100119.91;5045083;28;20498;-54
2022/11/25 05:57:58;;;;;;;1.37;0.90;;;;;;;5.19;100.00;100128.44;5042388;28;20451;-53
2022/11/25 06:00:25;;;;;;;8.13;3.70;;;;;;;5.22;100.00;100133.72;5038418;28;20454;-55
2022/11/25 06:02:52;;;;;;;1.17;1.07;;;;;;;5.03;100.00;100145.28;5028279;28;20475;-53
2022/11/25 06:05:19;;;;;;;2.20;2.10;;;;;;;5.06;100.00;100145.25;5045295;28;20780;-53
2022/11/25 06:07:45;;;;;;;8.50;1.53;;;;;;;5.13;100.00;100141.69;5027221;28;20874;-54
2022/11/25 06:10:12;;;;;;;3.90;2.70;;;;;;;5.09;100.00;100144.38;5045328;28;20527;-54
2022/11/25 06:12:40;;;;;;;1.70;1.33;;;;;;;5.06;100.00;100137.34;5043666;28;20479;-55
2022/11/25 06:15:07;;;;;;;2.20;1.90;;;;;;;5.11;100.00;100139.97;5037957;28;20490;-54
2022/11/25 06:17:34;;;;;;;1.13;1.03;;;;;;;4.98;100.00;100137.41;5039443;28;20460;-53
2022/11/25 06:20:00;;;;;;;0.83;0.80;;;;;;;4.93;100.00;100138.31;5045188;28;20448;-55
2022/11/25 06:22:27;;;;;;;18.93;2.30;;;;;;;5.09;100.00;100141.75;5043863;28;20481;-53
2022/11/25 06:24:53;;;;;;;1.60;1.50;;;;;;;5.11;100.00;100140.81;5038404;28;20824;-55
2022/11/25 06:27:27;;;;;;;7.73;1.80;;;;;;;5.02;100.00;100151.44;5038732;28;20904;-53
2022/11/25 06:30:14;;;;;;;1.50;1.40;;;;;;;5.12;100.00;100154.88;5041602;28;21036;-53
2022/11/25 06:32:40;;;;;;;5.20;0.97;;;;;;;5.32;100.00;100159.06;5019465;28;20479;-54
2022/11/25 06:35:07;;;;;;;7.30;1.00;;;;;;;5.29;100.00;100161.72;5041634;28;20513;-54
2022/11/25 06:37:33;;;;;;;6.63;1.30;;;;;;;5.26;100.00;100169.66;5037081;28;20455;-54
2022/11/25 06:40:00;;;;;;;0.77;0.77;;;;;;;5.33;100.00;100158.16;5041103;28;20456;-53
2022/11/25 06:42:27;;;;;;;9.93;3.10;;;;;;;5.31;100.00;100166.97;5044273;28;20486;-53
2022/11/25 06:44:53;;;;;;;0.97;0.87;;;;;;;5.21;100.00;100166.22;5041891;28;20474;-54
2022/11/25 06:47:20;;;;;;;2.03;1.93;;;;;;;5.24;100.00;100163.53;5037929;28;20504;-53
2022/11/25 06:49:46;;;;;;;26.80;2.20;;;;;;;5.26;100.00;100171.44;5040669;28;20502;-54
2022/11/25 06:52:12;;;;;;;1.77;1.17;;;;;;;5.35;100.00;100174.00;5044512;28;20479;-54
2022/11/25 06:54:40;;;;;;;0.90;0.90;;;;;;;5.32;100.00;100174.00;5041260;28;20451;-55
2022/11/25 06:57:08;;;;;;;2.73;2.53;;;;;;;5.35;100.00;100174.00;5037592;28;20451;-54
2022/11/25 06:59:34;;;;;;;6.07;2.60;;;;;;;5.34;100.00;100180.13;5022783;28;20509;-53
2022/11/25 07:02:01;;;;;;;4.70;1.40;;;;;;;5.33;100.00;100187.16;5031914;28;20973;-56
2022/11/25 07:04:28;;;;;;;7.77;2.40;;;;;;;5.29;100.00;100190.72;5042008;28;20460;-54
2022/11/25 07:06:54;;;;;;;1.40;1.40;;;;;;;5.43;100.00;100190.59;5028453;28;20483;-54
2022/11/25 07:09:21;;;;;;;2.30;1.93;;;;;;;5.50;100.00;100196.69;5041753;28;20819;-54
2022/11/25 07:11:48;;;;;;;5.40;2.20;;;;;;;5.49;100.00;100187.03;5036846;28;20475;-54
2022/11/25 07:14:15;;;;;;;4.10;2.60;;;;;;;5.38;100.00;100191.53;5039655;28;20510;-53
2022/11/25 07:16:43;;;;;;;6.10;2.10;;;;;;;5.38;100.00;100191.53;5043461;28;20905;-55
2022/11/25 07:19:12;;;;;;;10.27;0.90;;;;;;;5.34;100.00;100185.41;5042370;28;20512;-54
2022/11/25 07:21:38;;;;;;;3.60;2.27;;;;;;;5.44;100.00;100194.97;5036811;28;20524;-53
2022/11/25 07:24:06;;;;;;;3.30;3.00;;;;;;;5.30;100.00;100191.59;5038109;28;20464;-54
2022/11/25 07:26:36;;;;;;;17.57;2.80;;;;;;;5.39;100.00;100190.66;5043537;28;20447;-55
2022/11/25 07:29:06;;;;;;;1.90;1.80;;;;;;;5.48;100.00;100195.81;5043423;28;20455;-54
2022/11/25 07:31:52;;;;;;;10.13;3.47;;;;;;;5.56;100.00;100199.25;5020307;28;20566;-54
2022/11/25 07:34:20;;;;;;;9.07;2.40;;;;;;;5.52;100.00;100189.63;5043610;28;20490;-55
2022/11/25 07:36:49;;;;;;;3.03;1.43;;;;;;;5.64;100.00;100187.75;5040516;28;20499;-53
2022/11/25 07:39:18;;;;;;;0.67;0.67;;;;;;;5.52;100.00;100190.50;5037200;28;20447;-53
2022/11/25 07:41:47;;;;;;;2.80;2.60;;;;;;;5.60;100.00;100191.28;5039407;28;20475;-54
2022/11/25 07:44:14;;;;;;;16.47;1.10;;;;;;;5.63;100.00;100191.28;5043454;28;20459;-54
2022/11/25 07:46:43;;;;;;;2.70;2.43;;;;;;;5.71;100.00;100200.88;5040784;28;20446;-54
2022/11/25 07:49:13;;;;;;;5.90;2.40;;;;;;;5.75;100.00;100213.13;5035390;28;20956;-54
2022/11/25 07:51:42;;;;;;;1.67;1.20;;;;;;;5.77;100.00;100217.50;5038410;28;20471;-54
2022/11/25 07:54:11;;;;;;;2.27;1.73;;;;;;;5.76;100.00;100221.03;5043464;28;20463;-54
2022/11/25 07:56:39;;;;;;;1.93;1.83;;;;;;;5.84;100.00;100223.59;5042534;28;20497;-53
2022/11/25 07:59:09;;;;;;;4.93;1.90;;;;;;;5.84;100.00;100228.84;5016824;28;20451;-54
2022/11/25 08:01:36;;;;;;;3.00;2.77;;;;;;;5.89;100.00;100227.03;5030040;28;20944;-54
2022/11/25 08:04:02;;;;;;;3.33;2.60;;;;;;;5.90;100.00;100226.22;5037066;28;20458;-53
2022/11/25 08:06:29;;;;;;;3.13;2.27;;;;;;;6.03;100.00;100235.75;5030785;28;20456;-52
2022/11/25 08:08:56;;;;;;;41.17;3.70;;;;;;;6.04;100.00;100229.56;5036940;28;20505;-54
2022/11/25 08:11:28;;;;;;;3.70;2.10;;;;;;;6.10;100.00;100226.84;5035687;28;20984;-54
2022/11/25 08:13:55;;;;;;;8.20;2.43;;;;;;;6.13;100.00;100224.16;5041044;28;20451;-53
2022/11/25 08:16:26;;;;;;;4.33;2.60;;;;;;;6.12;100.00;100226.81;5042619;28;20494;-55
2022/11/25 08:18:54;;;;;;;3.17;2.10;;;;;;;6.06;100.00;100217.22;5021362;28;20781;-52
2022/11/25 08:21:21;;;;;;;3.83;3.60;;;;;;;6.17;100.00;100223.25;5036083;28;20454;-56
2022/11/25 08:23:47;;;;;;;4.83;4.33;;;;;;;6.22;100.00;100221.44;5039296;28;20456;-53
2022/11/25 08:26:17;;;;;;;25.93;3.10;;;;;;;6.26;100.00;100231.94;5042358;28;20451;-53
2022/11/25 08:28:45;;;;;;;4.13;2.33;;;;;;;6.27;100.00;100233.69;5039601;28;20458;-53
2022/11/25 08:31:33;;;;;;;2.43;2.30;;;;;;;6.30;100.00;100237.16;5028844;28;20857;-54
2022/11/25 08:34:00;;;;;;;1.00;0.97;;;;;;;6.35;100.00;100234.47;5024689;28;20455;-53
2022/11/25 08:36:29;;;;;;;1.77;1.67;;;;;;;6.39;100.00;100236.19;5041980;28;21068;-53
2022/11/25 08:38:57;;;;;;;2.37;2.20;;;;;;;6.43;100.00;100240.53;5042490;28;20462;-54
2022/11/25 08:41:27;;;;;;;1.43;1.33;;;;;;;6.37;100.00;100246.75;5036635;28;20516;-55
2022/11/25 08:43:55;;;;;;;8.13;1.97;;;;;;;6.42;100.00;100249.34;5035670;28;20494;-55
2022/11/25 08:46:24;;;;;;;2.33;2.23;;;;;;;6.44;100.00;100252.81;5040641;28;20489;-55
2022/11/25 08:48:51;;;;;;;2.40;2.30;;;;;;;6.53;100.00;100256.22;5042438;28;20960;-53
2022/11/25 08:51:21;;;;;;;5.40;1.90;;;;;;;6.56;100.00;100260.59;5037767;28;20809;-54
2022/11/25 08:53:50;;;;;;;2.23;1.83;;;;;;;6.51;100.00;100260.66;5018203;28;20454;-55
2022/11/25 08:56:18;;;;;;;3.00;1.50;;;;;;;6.65;100.00;100260.47;5039244;28;20611;-55
2022/11/25 08:58:51;;;;;;;5.80;1.53;;;;;;;6.75;100.00;100264.75;5041969;28;20868;-55
2022/11/25 09:01:19;;;;;;;2.10;2.00;;;;;;;6.77;100.00;100265.59;5031449;28;20452;-53
2022/11/25 09:03:49;;;;;;;3.00;2.20;;;;;;;6.84;100.00;100266.38;5031758;28;20454;-53
2022/11/25 09:06:16;;;;;;;4.53;3.07;;;;;;;6.93;100.00;100268.03;5033346;28;20974;-54
2022/11/25 09:08:43;;;;;;;2.67;2.47;;;;;;;7.07;100.00;100266.06;5040878;28;20439;-52
2022/11/25 09:11:11;;;;;;;4.20;3.17;;;;;;;7.08;100.00;100262.53;5040975;28;20960;-55
2022/11/25 09:13:37;;;;;;;2.73;1.63;;;;;;;7.09;100.00;100259.84;5035174;28;20458;-53
2022/11/25 09:16:04;;;;;;;59.20;3.37;;;;;;;7.05;100.00;100262.56;5036386;28;20487;-55
2022/11/25 09:18:32;;;;;;;3.17;3.00;;;;;;;7.13;100.00;100258.06;5042251;28;20546;-54
2022/11/25 09:20:58;;;;;;;5.23;1.93;;;;;;;6.75;100.00;100269.16;5042112;28;20505;-54
2022/11/25 09:23:25;;;;;;;2.20;2.10;;;;;;;6.89;100.00;100266.34;5035553;28;20474;-55
2022/11/25 09:25:56;;;;;;;3.53;1.90;;;;;;;7.01;100.00;100272.31;5035232;28;20953;-52
2022/11/25 09:28:25;;;;;;;3.60;2.00;;;;;;;7.12;100.00;100277.44;5023365;28;20936;-55
2022/11/25 09:30:51;;;;;;;1.33;1.23;;;;;;;7.15;100.00;100280.06;5033702;28;20502;-55
2022/11/25 09:33:18;;;;;;;2.33;2.13;;;;;;;7.06;100.00;100290.75;5016327;28;20537;-53
2022/11/25 09:35:46;;;;;;;4.23;3.00;;;;;;;7.46;100.00;100292.78;5041770;28;20501;-53
2022/11/25 09:38:12;;;;;;;3.53;3.00;;;;;;;7.39;100.00;100295.53;5036784;28;20485;-55
2022/11/25 09:40:54;;;;;;;1.20;1.20;;;;;;;7.42;100.00;100292.84;5035270;28;20828;-54
2022/11/25 09:46:47;;;;;;;11.60;2.93;;;;;;;7.60;100.00;100309.31;5028501;28;20543;-54
2022/11/25 09:49:27;;;;;;;1.93;1.83;;;;;;;7.58;100.00;100316.41;5034933;28;20454;-54
2022/11/25 09:51:59;;;;;;;2.57;2.37;;;;;;;8.11;100.00;100315.50;5034796;28;20472;-54
2022/11/25 09:54:38;;;;;;;12.60;2.33;;;;;;;7.85;100.00;100320.38;5040403;28;20455;-54
2022/11/25 09:57:27;;;;;;;14.90;3.93;;;;;;;8.07;100.00;100319.06;5041857;28;20486;-55
2022/11/25 10:00:11;;;;;;;2.60;2.50;;;;;;;7.96;100.00;100327.22;5041450;28;20454;-53
2022/11/25 10:02:44;;;;;;;2.60;2.40;;;;;;;7.78;100.00;100324.00;5032612;28;21048;-54
2022/11/25 10:05:20;;;;;;;2.10;2.00;;;;;;;7.92;100.00;100329.94;5034621;28;20497;-55
2022/11/25 10:07:52;;;;;;;4.70;2.10;;;;;;;8.06;100.00;100325.28;5043627;28;20505;-54
2022/11/25 10:10:26;;;;;;;1.63;1.50;;;;;;;7.83;100.00;100330.13;5034840;28;20881;-56
2022/11/25 10:12:55;;;;;;;4.67;2.43;;;;;;;7.85;100.00;100330.97;5037109;28;20462;-55
2022/11/25 10:15:33;;;;;;;2.23;2.13;;;;;;;7.96;100.00;100329.00;5027156;28;20460;-53
2022/11/25 10:18:03;;;;;;;1.67;1.60;;;;;;;8.17;100.00;100338.31;5045156;28;20507;-55
2022/11/25 10:20:34;;;;;;;3.80;3.13;;;;;;;8.01;100.00;100335.09;5041371;28;20451;-53
2022/11/25 10:23:04;;;;;;;2.17;1.97;;;;;;;7.99;100.00;100332.47;5037966;28;20502;-54
2022/11/25 10:25:43;;;;;;;4.73;3.10;;;;;;;8.13;100.00;100331.34;5040774;28;20451;-56
2022/11/25 10:28:16;;;;;;;2.43;2.27;;;;;;;8.11;100.00;100333.16;5044803;28;20831;-55
2022/11/25 10:31:15;;;;;;;3.30;2.63;;;;;;;8.18;100.00;100340.06;5026979;28;20944;-53
2022/11/25 10:33:47;;;;;;;3.03;2.77;;;;;;;8.10;100.00;100331.41;5033634;28;20446;-54
2022/11/25 10:36:23;;;;;;;3.97;2.80;;;;;;;8.02;100.00;100336.81;5020258;28;20574;-55
2022/11/25 10:38:59;;;;;;;1.47;1.37;;;;;;;8.25;100.00;100334.66;5038225;28;20937;-55
2022/11/25 10:41:29;;;;;;;8.30;1.90;;;;;;;8.26;100.00;100327.56;5026099;28;20457;-55
2022/11/25 10:43:56;;;;;;;5.27;4.37;;;;;;;8.63;100.00;100332.19;5037666;28;20459;-54
2022/11/25 10:47:05;;;;;;;1.57;1.47;;;;;;;8.88;100.00;100325.47;5043050;28;21098;-55
2022/11/25 10:50:09;;;;;;;3.63;3.40;;;;;;;8.87;100.00;100331.69;5004480;28;20446;-54
2022/11/25 10:52:54;;;;;;;12.53;2.90;;;;;;;8.97;100.00;100337.69;5037294;28;20475;-55
2022/11/25 10:55:24;;;;;;;1.80;1.70;;;;;;;9.08;100.00;100330.38;5037716;28;20452;-53
2022/11/25 10:57:52;;;;;;;3.30;3.10;;;;;;;9.10;100.00;100337.38;5042227;28;20495;-55
2022/11/25 11:00:27;;;;;;;2.70;2.50;;;;;;;9.27;100.00;100346.75;5034302;28;20865;-54
2022/11/25 11:02:54;;;;;;;8.50;4.43;;;;;;;9.27;100.00;100337.00;5027260;28;21047;-54
2022/11/25 11:05:24;;;;;;;4.33;3.97;;;;;;;9.19;100.00;100345.16;5044612;28;20461;-54
2022/11/25 11:08:27;;;;;;;3.63;2.13;;;;;;;9.52;100.00;100336.44;5026520;28;20460;-53
2022/11/25 11:11:18;;;;;;;2.30;1.80;;;;;;;9.12;100.00;100340.00;4941160;29;20466;-53
2022/11/25 11:13:45;;;;;;;8.93;2.73;;;;;;;9.46;100.00;100333.03;5016326;28;20456;-53
2022/11/25 11:16:26;;;;;;;2.50;2.40;;;;;;;9.69;100.00;100342.22;5043950;28;20490;-54
2022/11/25 11:18:54;;;;;;;2.40;2.30;;;;;;;9.59;100.00;100336.25;5039839;28;20458;-53
2022/11/25 11:21:27;;;;;;;9.80;3.87;;;;;;;9.46;100.00;100338.34;5037135;28;20451;-55
2022/11/25 11:23:56;;;;;;;11.80;4.13;;;;;;;9.46;100.00;100353.38;5040241;28;20521;-54
2022/11/25 11:26:26;;;;;;;6.10;1.87;;;;;;;9.68;100.00;100351.97;5044255;28;20459;-55
2022/11/25 11:29:14;;;;;;;1.77;1.67;;;;;;;9.53;100.00;100352.31;5042111;28;20451;-53
2022/11/25 11:31:50;;;;;;;4.40;3.40;;;;;;;9.78;100.00;100358.81;5011608;28;20500;-54
2022/11/25 11:34:35;;;;;;;2.43;2.30;;;;;;;9.83;100.00;100360.47;5028801;28;20450;-53
2022/11/25 11:37:34;;;;;;;3.83;3.27;;;;;;;9.83;100.00;100369.28;5020538;28;21034;-54
2022/11/25 11:40:00;;;;;;;8.00;3.40;;;;;;;9.81;100.00;100363.16;5029987;28;20453;-53
2022/11/25 11:43:04;;;;;;;5.13;3.90;;;;;;;10.02;100.00;100369.75;5036192;28;20475;-54
2022/11/25 11:45:40;;;;;;;17.73;3.53;;;;;;;9.99;100.00;100369.78;5036788;28;20451;-53
2022/11/25 11:48:30;;;;;;;4.40;4.00;;;;;;;10.05;100.00;100365.22;5039986;28;20452;-52
2022/11/25 11:51:15;;;;;;;5.27;3.83;;;;;;;10.08;100.00;100372.22;5043133;28;20462;-55
2022/11/25 11:54:05;;;;;;;7.47;3.80;;;;;;;10.13;100.00;100370.31;5043348;28;20779;-56